sensor_id;sensor_type;location;lat;lon;timestamp;P1;durP1;ratioP1;P2;durP2;ratioP2
9815;SDS011;4947;44.526;11.360;2022-11-14T00:01:11;29.27;;;20.42;;
9815;SDS011;4947;44.526;11.360;2022-11-14T00:03:39;31.40;;;20.88;;
9815;SDS011;4947;44.526;11.360;2022-11-14T00:06:06;38.55;;;21.73;;
9815;SDS011;4947;44.526;11.360;2022-11-14T00:08:34;35.63;;;20.13;;
9815;SDS011;4947;44.526;11.360;2022-11-14T00:11:04;36.38;;;20.70;;
9815;SDS011;4947;44.526;11.360;2022-11-14T00:13:31;36.05;;;22.73;;
9815;SDS011;4947;44.526;11.360;2022-11-14T00:15:59;32.95;;;19.98;;
9815;SDS011;4947;44.526;11.360;2022-11-14T00:18:26;32.65;;;19.95;;
9815;SDS011;4947;44.526;11.360;2022-11-14T00:20:54;31.52;;;19.02;;
9815;SDS011;4947;44.526;11.360;2022-11-14T00:23:21;34.85;;;19.58;;
9815;SDS011;4947;44.526;11.360;2022-11-14T00:25:50;30.02;;;19.45;;
9815;SDS011;4947;44.526;11.360;2022-11-14T00:28:19;31.27;;;19.35;;
9815;SDS011;4947;44.526;11.360;2022-11-14T00:30:47;33.67;;;19.55;;
9815;SDS011;4947;44.526;11.360;2022-11-14T00:33:15;39.33;;;21.25;;
9815;SDS011;4947;44.526;11.360;2022-11-14T00:35:49;34.42;;;20.75;;
9815;SDS011;4947;44.526;11.360;2022-11-14T00:38:17;33.33;;;20.95;;
9815;SDS011;4947;44.526;11.360;2022-11-14T00:40:44;39.67;;;23.75;;
9815;SDS011;4947;44.526;11.360;2022-11-14T00:43:12;35.55;;;23.50;;
9815;SDS011;4947;44.526;11.360;2022-11-14T00:45:43;37.55;;;22.33;;
9815;SDS011;4947;44.526;11.360;2022-11-14T00:48:10;36.03;;;22.75;;
9815;SDS011;4947;44.526;11.360;2022-11-14T00:50:38;36.00;;;22.73;;
9815;SDS011;4947;44.526;11.360;2022-11-14T00:53:05;38.53;;;24.58;;
9815;SDS011;4947;44.526;11.360;2022-11-14T00:55:33;38.80;;;22.95;;
9815;SDS011;4947;44.526;11.360;2022-11-14T00:58:00;38.00;;;22.85;;
9815;SDS011;4947;44.526;11.360;2022-11-14T01:00:28;36.88;;;22.25;;
9815;SDS011;4947;44.526;11.360;2022-11-14T01:02:57;34.65;;;21.48;;
9815;SDS011;4947;44.526;11.360;2022-11-14T01:05:24;41.75;;;22.27;;
9815;SDS011;4947;44.526;11.360;2022-11-14T01:07:52;37.90;;;22.70;;
9815;SDS011;4947;44.526;11.360;2022-11-14T01:10:20;46.90;;;23.15;;
9815;SDS011;4947;44.526;11.360;2022-11-14T01:12:48;39.05;;;23.35;;
9815;SDS011;4947;44.526;11.360;2022-11-14T01:15:16;41.13;;;22.30;;
9815;SDS011;4947;44.526;11.360;2022-11-14T01:17:43;34.22;;;21.48;;
9815;SDS011;4947;44.526;11.360;2022-11-14T01:20:13;37.08;;;21.40;;
9815;SDS011;4947;44.526;11.360;2022-11-14T01:22:41;37.33;;;21.38;;
9815;SDS011;4947;44.526;11.360;2022-11-14T01:25:08;36.60;;;21.90;;
9815;SDS011;4947;44.526;11.360;2022-11-14T01:27:36;33.75;;;21.13;;
9815;SDS011;4947;44.526;11.360;2022-11-14T01:30:04;36.38;;;23.42;;
9815;SDS011;4947;44.526;11.360;2022-11-14T01:32:32;36.13;;;22.13;;
9815;SDS011;4947;44.526;11.360;2022-11-14T01:34:59;39.70;;;22.00;;
9815;SDS011;4947;44.526;11.360;2022-11-14T01:37:28;35.30;;;21.98;;
9815;SDS011;4947;44.526;11.360;2022-11-14T01:39:56;35.28;;;20.67;;
9815;SDS011;4947;44.526;11.360;2022-11-14T01:42:23;41.00;;;22.15;;
9815;SDS011;4947;44.526;11.360;2022-11-14T01:44:51;33.88;;;20.52;;
9815;SDS011;4947;44.526;11.360;2022-11-14T01:47:19;32.90;;;22.10;;
9815;SDS011;4947;44.526;11.360;2022-11-14T01:49:50;37.95;;;21.70;;
9815;SDS011;4947;44.526;11.360;2022-11-14T01:52:20;35.38;;;20.95;;
9815;SDS011;4947;44.526;11.360;2022-11-14T01:54:52;37.28;;;21.17;;
9815;SDS011;4947;44.526;11.360;2022-11-14T01:57:24;39.88;;;22.80;;
9815;SDS011;4947;44.526;11.360;2022-11-14T01:59:57;33.17;;;20.63;;
9815;SDS011;4947;44.526;11.360;2022-11-14T02:02:27;31.90;;;19.42;;
9815;SDS011;4947;44.526;11.360;2022-11-14T02:04:56;34.25;;;21.75;;
9815;SDS011;4947;44.526;11.360;2022-11-14T02:07:27;33.22;;;20.13;;
9815;SDS011;4947;44.526;11.360;2022-11-14T02:10:00;33.60;;;20.50;;
9815;SDS011;4947;44.526;11.360;2022-11-14T02:12:30;33.08;;;19.83;;
9815;SDS011;4947;44.526;11.360;2022-11-14T02:14:58;31.38;;;19.23;;
9815;SDS011;4947;44.526;11.360;2022-11-14T02:17:27;31.08;;;19.58;;
9815;SDS011;4947;44.526;11.360;2022-11-14T02:22:30;34.95;;;21.08;;
9815;SDS011;4947;44.526;11.360;2022-11-14T02:24:58;34.22;;;20.15;;
9815;SDS011;4947;44.526;11.360;2022-11-14T02:27:25;36.17;;;20.40;;
9815;SDS011;4947;44.526;11.360;2022-11-14T02:30:01;34.92;;;21.40;;
9815;SDS011;4947;44.526;11.360;2022-11-14T02:32:30;33.95;;;21.08;;
9815;SDS011;4947;44.526;11.360;2022-11-14T02:34:57;35.13;;;21.45;;
9815;SDS011;4947;44.526;11.360;2022-11-14T02:37:32;34.50;;;20.00;;
9815;SDS011;4947;44.526;11.360;2022-11-14T02:40:00;32.47;;;19.90;;
9815;SDS011;4947;44.526;11.360;2022-11-14T02:42:27;31.17;;;19.08;;
9815;SDS011;4947;44.526;11.360;2022-11-14T02:44:54;32.30;;;19.65;;
9815;SDS011;4947;44.526;11.360;2022-11-14T02:47:22;31.98;;;18.67;;
9815;SDS011;4947;44.526;11.360;2022-11-14T02:49:49;29.80;;;19.48;;
9815;SDS011;4947;44.526;11.360;2022-11-14T02:52:17;28.77;;;17.92;;
9815;SDS011;4947;44.526;11.360;2022-11-14T02:54:46;28.58;;;18.13;;
9815;SDS011;4947;44.526;11.360;2022-11-14T02:57:13;29.90;;;17.98;;
9815;SDS011;4947;44.526;11.360;2022-11-14T02:59:40;27.80;;;16.92;;
9815;SDS011;4947;44.526;11.360;2022-11-14T03:02:07;33.03;;;18.00;;
9815;SDS011;4947;44.526;11.360;2022-11-14T03:04:35;28.42;;;18.13;;
9815;SDS011;4947;44.526;11.360;2022-11-14T03:07:02;30.83;;;18.15;;
9815;SDS011;4947;44.526;11.360;2022-11-14T03:09:30;32.97;;;19.38;;
9815;SDS011;4947;44.526;11.360;2022-11-14T03:11:59;30.80;;;17.80;;
9815;SDS011;4947;44.526;11.360;2022-11-14T03:14:29;30.88;;;19.13;;
9815;SDS011;4947;44.526;11.360;2022-11-14T03:16:57;37.30;;;20.58;;
9815;SDS011;4947;44.526;11.360;2022-11-14T03:19:24;35.45;;;19.02;;
9815;SDS011;4947;44.526;11.360;2022-11-14T03:21:52;31.73;;;19.58;;
9815;SDS011;4947;44.526;11.360;2022-11-14T03:24:19;31.17;;;18.77;;
9815;SDS011;4947;44.526;11.360;2022-11-14T03:26:47;31.58;;;18.73;;
9815;SDS011;4947;44.526;11.360;2022-11-14T03:29:16;29.35;;;18.23;;
9815;SDS011;4947;44.526;11.360;2022-11-14T03:31:43;32.50;;;19.10;;
9815;SDS011;4947;44.526;11.360;2022-11-14T03:34:11;35.42;;;19.75;;
9815;SDS011;4947;44.526;11.360;2022-11-14T03:36:38;31.23;;;18.00;;
9815;SDS011;4947;44.526;11.360;2022-11-14T03:39:06;32.10;;;19.13;;
9815;SDS011;4947;44.526;11.360;2022-11-14T03:41:34;31.05;;;19.23;;
9815;SDS011;4947;44.526;11.360;2022-11-14T03:44:01;32.38;;;18.90;;
9815;SDS011;4947;44.526;11.360;2022-11-14T03:46:30;34.75;;;19.58;;
9815;SDS011;4947;44.526;11.360;2022-11-14T03:48:58;32.20;;;18.65;;
9815;SDS011;4947;44.526;11.360;2022-11-14T03:51:26;32.50;;;19.95;;
9815;SDS011;4947;44.526;11.360;2022-11-14T03:53:53;33.78;;;19.80;;
9815;SDS011;4947;44.526;11.360;2022-11-14T03:56:21;33.38;;;19.58;;
9815;SDS011;4947;44.526;11.360;2022-11-14T03:58:48;32.90;;;19.85;;
9815;SDS011;4947;44.526;11.360;2022-11-14T04:01:16;31.58;;;19.50;;
9815;SDS011;4947;44.526;11.360;2022-11-14T04:03:45;32.83;;;20.40;;
9815;SDS011;4947;44.526;11.360;2022-11-14T04:06:13;35.80;;;20.40;;
9815;SDS011;4947;44.526;11.360;2022-11-14T04:08:41;33.65;;;20.50;;
9815;SDS011;4947;44.526;11.360;2022-11-14T04:11:08;35.13;;;20.25;;
9815;SDS011;4947;44.526;11.360;2022-11-14T04:13:35;30.80;;;19.52;;
9815;SDS011;4947;44.526;11.360;2022-11-14T04:16:02;32.47;;;19.48;;
9815;SDS011;4947;44.526;11.360;2022-11-14T04:18:30;33.53;;;19.65;;
9815;SDS011;4947;44.526;11.360;2022-11-14T04:20:59;35.08;;;20.48;;
9815;SDS011;4947;44.526;11.360;2022-11-14T04:23:27;33.83;;;20.85;;
9815;SDS011;4947;44.526;11.360;2022-11-14T04:25:54;34.05;;;19.90;;
9815;SDS011;4947;44.526;11.360;2022-11-14T04:28:22;38.72;;;21.77;;
9815;SDS011;4947;44.526;11.360;2022-11-14T04:30:50;31.85;;;20.58;;
9815;SDS011;4947;44.526;11.360;2022-11-14T04:33:17;33.80;;;20.73;;
9815;SDS011;4947;44.526;11.360;2022-11-14T04:35:44;34.85;;;20.85;;
9815;SDS011;4947;44.526;11.360;2022-11-14T04:38:13;36.33;;;21.40;;
9815;SDS011;4947;44.526;11.360;2022-11-14T04:40:44;39.60;;;22.15;;
9815;SDS011;4947;44.526;11.360;2022-11-14T04:43:14;35.95;;;21.10;;
9815;SDS011;4947;44.526;11.360;2022-11-14T04:45:42;34.95;;;22.13;;
9815;SDS011;4947;44.526;11.360;2022-11-14T04:48:09;40.17;;;23.20;;
9815;SDS011;4947;44.526;11.360;2022-11-14T04:50:37;40.42;;;22.02;;
9815;SDS011;4947;44.526;11.360;2022-11-14T04:53:05;37.35;;;21.55;;
9815;SDS011;4947;44.526;11.360;2022-11-14T04:55:34;38.03;;;22.02;;
9815;SDS011;4947;44.526;11.360;2022-11-14T04:58:04;33.78;;;21.27;;
9815;SDS011;4947;44.526;11.360;2022-11-14T05:00:32;34.20;;;21.33;;
9815;SDS011;4947;44.526;11.360;2022-11-14T05:02:59;34.28;;;21.88;;
9815;SDS011;4947;44.526;11.360;2022-11-14T05:05:27;35.53;;;21.58;;
9815;SDS011;4947;44.526;11.360;2022-11-14T05:07:54;33.67;;;22.15;;
9815;SDS011;4947;44.526;11.360;2022-11-14T05:10:22;36.45;;;23.05;;
9815;SDS011;4947;44.526;11.360;2022-11-14T05:12:53;37.90;;;21.92;;
9815;SDS011;4947;44.526;11.360;2022-11-14T05:15:20;33.17;;;20.80;;
9815;SDS011;4947;44.526;11.360;2022-11-14T05:17:48;37.80;;;22.25;;
9815;SDS011;4947;44.526;11.360;2022-11-14T05:20:15;35.50;;;21.73;;
9815;SDS011;4947;44.526;11.360;2022-11-14T05:22:43;32.40;;;21.08;;
9815;SDS011;4947;44.526;11.360;2022-11-14T05:25:10;34.28;;;21.73;;
9815;SDS011;4947;44.526;11.360;2022-11-14T05:27:38;47.35;;;23.08;;
9815;SDS011;4947;44.526;11.360;2022-11-14T05:30:09;37.00;;;20.25;;
9815;SDS011;4947;44.526;11.360;2022-11-14T05:32:37;43.15;;;23.85;;
9815;SDS011;4947;44.526;11.360;2022-11-14T05:35:05;40.28;;;23.35;;
9815;SDS011;4947;44.526;11.360;2022-11-14T05:37:34;35.67;;;21.48;;
9815;SDS011;4947;44.526;11.360;2022-11-14T05:40:02;33.53;;;20.20;;
9815;SDS011;4947;44.526;11.360;2022-11-14T05:42:29;34.28;;;21.70;;
9815;SDS011;4947;44.526;11.360;2022-11-14T05:44:57;42.53;;;22.40;;
9815;SDS011;4947;44.526;11.360;2022-11-14T05:47:26;40.88;;;22.50;;
9815;SDS011;4947;44.526;11.360;2022-11-14T05:49:53;34.03;;;20.13;;
9815;SDS011;4947;44.526;11.360;2022-11-14T05:52:21;43.30;;;22.77;;
9815;SDS011;4947;44.526;11.360;2022-11-14T05:54:48;38.03;;;22.98;;
9815;SDS011;4947;44.526;11.360;2022-11-14T05:57:16;41.08;;;23.70;;
9815;SDS011;4947;44.526;11.360;2022-11-14T05:59:44;40.17;;;22.42;;
9815;SDS011;4947;44.526;11.360;2022-11-14T06:02:18;39.17;;;22.42;;
9815;SDS011;4947;44.526;11.360;2022-11-14T06:04:48;42.42;;;23.85;;
9815;SDS011;4947;44.526;11.360;2022-11-14T06:07:15;48.58;;;25.80;;
9815;SDS011;4947;44.526;11.360;2022-11-14T06:09:43;46.85;;;25.60;;
9815;SDS011;4947;44.526;11.360;2022-11-14T06:12:10;50.78;;;25.15;;
9815;SDS011;4947;44.526;11.360;2022-11-14T06:14:38;48.00;;;25.65;;
9815;SDS011;4947;44.526;11.360;2022-11-14T06:17:05;46.72;;;25.33;;
9815;SDS011;4947;44.526;11.360;2022-11-14T06:19:33;46.88;;;25.65;;
9815;SDS011;4947;44.526;11.360;2022-11-14T06:22:03;45.47;;;24.48;;
9815;SDS011;4947;44.526;11.360;2022-11-14T06:24:30;46.90;;;24.33;;
9815;SDS011;4947;44.526;11.360;2022-11-14T06:26:58;59.70;;;27.70;;
9815;SDS011;4947;44.526;11.360;2022-11-14T06:29:26;52.97;;;27.10;;
9815;SDS011;4947;44.526;11.360;2022-11-14T06:31:53;54.30;;;26.77;;
9815;SDS011;4947;44.526;11.360;2022-11-14T06:34:21;52.15;;;26.98;;
9815;SDS011;4947;44.526;11.360;2022-11-14T06:36:48;56.30;;;27.42;;
9815;SDS011;4947;44.526;11.360;2022-11-14T06:39:17;55.53;;;29.55;;
9815;SDS011;4947;44.526;11.360;2022-11-14T06:41:44;61.50;;;27.40;;
9815;SDS011;4947;44.526;11.360;2022-11-14T06:44:12;58.28;;;27.95;;
9815;SDS011;4947;44.526;11.360;2022-11-14T06:46:40;57.65;;;28.75;;
9815;SDS011;4947;44.526;11.360;2022-11-14T06:49:07;57.17;;;27.88;;
9815;SDS011;4947;44.526;11.360;2022-11-14T06:51:35;56.80;;;28.13;;
9815;SDS011;4947;44.526;11.360;2022-11-14T06:54:02;60.53;;;29.92;;
9815;SDS011;4947;44.526;11.360;2022-11-14T06:56:33;61.80;;;29.02;;
9815;SDS011;4947;44.526;11.360;2022-11-14T06:59:00;64.32;;;30.27;;
9815;SDS011;4947;44.526;11.360;2022-11-14T07:01:28;62.67;;;29.15;;
9815;SDS011;4947;44.526;11.360;2022-11-14T07:03:55;62.88;;;29.58;;
9815;SDS011;4947;44.526;11.360;2022-11-14T07:06:25;69.70;;;31.08;;
9815;SDS011;4947;44.526;11.360;2022-11-14T07:08:53;62.05;;;31.52;;
9815;SDS011;4947;44.526;11.360;2022-11-14T07:11:22;60.03;;;29.35;;
9815;SDS011;4947;44.526;11.360;2022-11-14T07:13:53;72.78;;;32.85;;
9815;SDS011;4947;44.526;11.360;2022-11-14T07:16:22;65.65;;;29.13;;
9815;SDS011;4947;44.526;11.360;2022-11-14T07:18:50;64.57;;;30.80;;
9815;SDS011;4947;44.526;11.360;2022-11-14T07:21:18;64.60;;;31.63;;
9815;SDS011;4947;44.526;11.360;2022-11-14T07:23:45;66.55;;;32.03;;
9815;SDS011;4947;44.526;11.360;2022-11-14T07:26:13;59.95;;;29.65;;
9815;SDS011;4947;44.526;11.360;2022-11-14T07:28:41;70.05;;;30.30;;
9815;SDS011;4947;44.526;11.360;2022-11-14T07:31:12;64.28;;;30.45;;
9815;SDS011;4947;44.526;11.360;2022-11-14T07:33:40;65.53;;;31.77;;
9815;SDS011;4947;44.526;11.360;2022-11-14T07:36:09;63.22;;;31.45;;
9815;SDS011;4947;44.526;11.360;2022-11-14T07:38:37;60.40;;;29.60;;
9815;SDS011;4947;44.526;11.360;2022-11-14T07:41:06;68.05;;;33.47;;
9815;SDS011;4947;44.526;11.360;2022-11-14T07:43:36;63.17;;;29.85;;
9815;SDS011;4947;44.526;11.360;2022-11-14T07:46:04;68.47;;;32.92;;
9815;SDS011;4947;44.526;11.360;2022-11-14T07:48:35;57.25;;;30.15;;
9815;SDS011;4947;44.526;11.360;2022-11-14T07:51:03;69.18;;;32.15;;
9815;SDS011;4947;44.526;11.360;2022-11-14T07:53:32;55.63;;;30.48;;
9815;SDS011;4947;44.526;11.360;2022-11-14T07:56:01;53.45;;;28.88;;
9815;SDS011;4947;44.526;11.360;2022-11-14T07:58:29;67.75;;;31.45;;
9815;SDS011;4947;44.526;11.360;2022-11-14T08:00:59;66.10;;;32.10;;
9815;SDS011;4947;44.526;11.360;2022-11-14T08:03:27;58.40;;;30.17;;
9815;SDS011;4947;44.526;11.360;2022-11-14T08:06:00;59.85;;;30.73;;
9815;SDS011;4947;44.526;11.360;2022-11-14T08:08:31;75.50;;;31.15;;
9815;SDS011;4947;44.526;11.360;2022-11-14T08:10:59;61.63;;;32.00;;
9815;SDS011;4947;44.526;11.360;2022-11-14T08:13:27;60.40;;;31.17;;
9815;SDS011;4947;44.526;11.360;2022-11-14T08:15:55;59.22;;;30.77;;
9815;SDS011;4947;44.526;11.360;2022-11-14T08:18:24;55.50;;;29.80;;
9815;SDS011;4947;44.526;11.360;2022-11-14T08:20:51;62.70;;;31.38;;
9815;SDS011;4947;44.526;11.360;2022-11-14T08:23:23;64.50;;;31.05;;
9815;SDS011;4947;44.526;11.360;2022-11-14T08:25:50;59.97;;;31.90;;
9815;SDS011;4947;44.526;11.360;2022-11-14T08:28:19;57.17;;;28.95;;
9815;SDS011;4947;44.526;11.360;2022-11-14T08:30:46;56.33;;;30.40;;
9815;SDS011;4947;44.526;11.360;2022-11-14T08:33:14;56.60;;;30.13;;
9815;SDS011;4947;44.526;11.360;2022-11-14T08:35:41;56.00;;;29.08;;
9815;SDS011;4947;44.526;11.360;2022-11-14T08:38:09;56.78;;;30.73;;
9815;SDS011;4947;44.526;11.360;2022-11-14T08:40:38;61.45;;;31.10;;
9815;SDS011;4947;44.526;11.360;2022-11-14T08:43:06;58.88;;;28.77;;
9815;SDS011;4947;44.526;11.360;2022-11-14T08:45:35;58.78;;;29.27;;
9815;SDS011;4947;44.526;11.360;2022-11-14T08:48:03;59.90;;;31.13;;
9815;SDS011;4947;44.526;11.360;2022-11-14T08:50:31;54.67;;;29.08;;
9815;SDS011;4947;44.526;11.360;2022-11-14T08:52:58;60.55;;;29.50;;
9815;SDS011;4947;44.526;11.360;2022-11-14T08:55:26;49.15;;;27.48;;
9815;SDS011;4947;44.526;11.360;2022-11-14T08:57:55;48.65;;;27.77;;
9815;SDS011;4947;44.526;11.360;2022-11-14T09:00:23;48.17;;;26.17;;
9815;SDS011;4947;44.526;11.360;2022-11-14T09:02:51;50.53;;;27.00;;
9815;SDS011;4947;44.526;11.360;2022-11-14T09:05:20;45.50;;;25.23;;
9815;SDS011;4947;44.526;11.360;2022-11-14T09:07:47;46.08;;;25.42;;
9815;SDS011;4947;44.526;11.360;2022-11-14T09:10:14;39.90;;;23.80;;
9815;SDS011;4947;44.526;11.360;2022-11-14T09:12:42;44.97;;;24.95;;
9815;SDS011;4947;44.526;11.360;2022-11-14T09:15:11;44.60;;;25.73;;
9815;SDS011;4947;44.526;11.360;2022-11-14T09:17:39;45.53;;;23.45;;
9815;SDS011;4947;44.526;11.360;2022-11-14T09:20:06;37.38;;;23.08;;
9815;SDS011;4947;44.526;11.360;2022-11-14T09:22:34;39.85;;;23.00;;
9815;SDS011;4947;44.526;11.360;2022-11-14T09:25:01;37.05;;;22.35;;
9815;SDS011;4947;44.526;11.360;2022-11-14T09:27:29;36.15;;;22.45;;
9815;SDS011;4947;44.526;11.360;2022-11-14T09:29:57;35.88;;;21.52;;
9815;SDS011;4947;44.526;11.360;2022-11-14T09:32:26;34.30;;;21.33;;
9815;SDS011;4947;44.526;11.360;2022-11-14T09:34:53;32.95;;;20.48;;
9815;SDS011;4947;44.526;11.360;2022-11-14T09:37:21;38.22;;;20.88;;
9815;SDS011;4947;44.526;11.360;2022-11-14T09:39:50;35.92;;;20.20;;
9815;SDS011;4947;44.526;11.360;2022-11-14T09:42:23;33.60;;;19.88;;
9815;SDS011;4947;44.526;11.360;2022-11-14T09:44:57;35.40;;;21.08;;
9815;SDS011;4947;44.526;11.360;2022-11-14T09:47:29;36.65;;;21.48;;
9815;SDS011;4947;44.526;11.360;2022-11-14T09:50:00;33.67;;;20.42;;
9815;SDS011;4947;44.526;11.360;2022-11-14T09:52:34;31.88;;;21.20;;
9815;SDS011;4947;44.526;11.360;2022-11-14T09:55:07;35.05;;;21.63;;
9815;SDS011;4947;44.526;11.360;2022-11-14T09:57:38;33.15;;;20.17;;
9815;SDS011;4947;44.526;11.360;2022-11-14T10:00:11;31.45;;;20.08;;
9815;SDS011;4947;44.526;11.360;2022-11-14T10:03:02;32.30;;;19.38;;
9815;SDS011;4947;44.526;11.360;2022-11-14T10:08:48;31.13;;;18.50;;
9815;SDS011;4947;44.526;11.360;2022-11-14T10:11:28;27.08;;;18.35;;
9815;SDS011;4947;44.526;11.360;2022-11-14T10:14:19;30.75;;;18.27;;
9815;SDS011;4947;44.526;11.360;2022-11-14T10:16:58;31.30;;;18.85;;
9815;SDS011;4947;44.526;11.360;2022-11-14T10:19:40;32.38;;;18.83;;
9815;SDS011;4947;44.526;11.360;2022-11-14T10:22:16;29.75;;;17.92;;
9815;SDS011;4947;44.526;11.360;2022-11-14T10:27:56;29.63;;;17.42;;
9815;SDS011;4947;44.526;11.360;2022-11-14T10:30:38;27.55;;;15.95;;
9815;SDS011;4947;44.526;11.360;2022-11-14T10:33:14;29.70;;;17.95;;
9815;SDS011;4947;44.526;11.360;2022-11-14T10:35:52;27.95;;;15.85;;
9815;SDS011;4947;44.526;11.360;2022-11-14T10:38:25;21.65;;;14.57;;
9815;SDS011;4947;44.526;11.360;2022-11-14T10:40:59;30.67;;;17.23;;
9815;SDS011;4947;44.526;11.360;2022-11-14T10:43:32;27.13;;;15.38;;
9815;SDS011;4947;44.526;11.360;2022-11-14T10:46:04;25.80;;;15.27;;
9815;SDS011;4947;44.526;11.360;2022-11-14T10:48:37;23.27;;;15.18;;
9815;SDS011;4947;44.526;11.360;2022-11-14T10:51:11;26.35;;;17.23;;
9815;SDS011;4947;44.526;11.360;2022-11-14T10:53:47;31.38;;;18.15;;
9815;SDS011;4947;44.526;11.360;2022-11-14T10:56:19;30.90;;;18.35;;
9815;SDS011;4947;44.526;11.360;2022-11-14T10:58:46;29.00;;;17.98;;
9815;SDS011;4947;44.526;11.360;2022-11-14T11:01:36;30.27;;;17.05;;
9815;SDS011;4947;44.526;11.360;2022-11-14T11:04:12;22.55;;;13.85;;
9815;SDS011;4947;44.526;11.360;2022-11-14T11:06:53;28.15;;;15.13;;
9815;SDS011;4947;44.526;11.360;2022-11-14T11:09:22;24.05;;;15.10;;
9815;SDS011;4947;44.526;11.360;2022-11-14T11:12:08;25.98;;;15.93;;
9815;SDS011;4947;44.526;11.360;2022-11-14T11:14:41;26.42;;;16.25;;
9815;SDS011;4947;44.526;11.360;2022-11-14T11:17:16;22.70;;;16.00;;
9815;SDS011;4947;44.526;11.360;2022-11-14T11:19:46;27.33;;;17.70;;
9815;SDS011;4947;44.526;11.360;2022-11-14T11:22:26;32.13;;;17.85;;
9815;SDS011;4947;44.526;11.360;2022-11-14T11:24:56;33.25;;;17.25;;
9815;SDS011;4947;44.526;11.360;2022-11-14T11:27:24;32.33;;;19.23;;
9815;SDS011;4947;44.526;11.360;2022-11-14T11:30:03;31.52;;;19.27;;
9815;SDS011;4947;44.526;11.360;2022-11-14T11:32:46;28.10;;;17.40;;
9815;SDS011;4947;44.526;11.360;2022-11-14T11:35:14;30.17;;;19.10;;
9815;SDS011;4947;44.526;11.360;2022-11-14T11:37:44;32.65;;;19.83;;
9815;SDS011;4947;44.526;11.360;2022-11-14T11:40:17;30.10;;;20.65;;
9815;SDS011;4947;44.526;11.360;2022-11-14T11:42:49;31.98;;;19.60;;
9815;SDS011;4947;44.526;11.360;2022-11-14T11:45:23;34.92;;;20.27;;
9815;SDS011;4947;44.526;11.360;2022-11-14T11:47:54;30.88;;;18.13;;
9815;SDS011;4947;44.526;11.360;2022-11-14T11:50:23;26.70;;;18.15;;
9815;SDS011;4947;44.526;11.360;2022-11-14T11:52:57;30.60;;;18.35;;
9815;SDS011;4947;44.526;11.360;2022-11-14T11:55:32;29.30;;;17.13;;
9815;SDS011;4947;44.526;11.360;2022-11-14T11:58:04;30.67;;;17.88;;
9815;SDS011;4947;44.526;11.360;2022-11-14T12:00:36;26.25;;;17.95;;
9815;SDS011;4947;44.526;11.360;2022-11-14T12:03:04;28.13;;;18.60;;
9815;SDS011;4947;44.526;11.360;2022-11-14T12:05:41;29.75;;;19.75;;
9815;SDS011;4947;44.526;11.360;2022-11-14T12:08:19;27.67;;;18.95;;
9815;SDS011;4947;44.526;11.360;2022-11-14T12:10:52;30.38;;;20.45;;
9815;SDS011;4947;44.526;11.360;2022-11-14T12:16:35;29.50;;;17.85;;
9815;SDS011;4947;44.526;11.360;2022-11-14T12:19:31;30.45;;;19.27;;
9815;SDS011;4947;44.526;11.360;2022-11-14T12:22:12;25.02;;;17.08;;
9815;SDS011;4947;44.526;11.360;2022-11-14T12:25:00;30.45;;;19.10;;
9815;SDS011;4947;44.526;11.360;2022-11-14T12:27:50;28.38;;;18.77;;
9815;SDS011;4947;44.526;11.360;2022-11-14T12:30:28;35.72;;;20.00;;
9815;SDS011;4947;44.526;11.360;2022-11-14T12:32:58;30.20;;;21.23;;
9815;SDS011;4947;44.526;11.360;2022-11-14T12:35:30;29.15;;;19.15;;
9815;SDS011;4947;44.526;11.360;2022-11-14T12:38:00;28.45;;;17.92;;
9815;SDS011;4947;44.526;11.360;2022-11-14T12:40:32;27.38;;;18.27;;
9815;SDS011;4947;44.526;11.360;2022-11-14T12:43:01;29.80;;;16.70;;
9815;SDS011;4947;44.526;11.360;2022-11-14T12:48:34;24.45;;;16.55;;
9815;SDS011;4947;44.526;11.360;2022-11-14T12:51:46;27.02;;;16.65;;
9815;SDS011;4947;44.526;11.360;2022-11-14T12:57:11;27.00;;;16.73;;
9815;SDS011;4947;44.526;11.360;2022-11-14T13:00:06;24.98;;;17.15;;
9815;SDS011;4947;44.526;11.360;2022-11-14T13:05:49;25.63;;;16.48;;
9815;SDS011;4947;44.526;11.360;2022-11-14T13:08:36;28.95;;;19.08;;
9815;SDS011;4947;44.526;11.360;2022-11-14T13:11:34;28.65;;;18.48;;
9815;SDS011;4947;44.526;11.360;2022-11-14T13:14:21;29.13;;;18.75;;
9815;SDS011;4947;44.526;11.360;2022-11-14T13:17:10;30.23;;;20.48;;
9815;SDS011;4947;44.526;11.360;2022-11-14T13:29:04;32.00;;;19.50;;
9815;SDS011;4947;44.526;11.360;2022-11-14T13:31:43;28.25;;;19.73;;
9815;SDS011;4947;44.526;11.360;2022-11-14T13:37:09;28.25;;;19.40;;
9815;SDS011;4947;44.526;11.360;2022-11-14T13:39:47;33.35;;;20.35;;
9815;SDS011;4947;44.526;11.360;2022-11-14T13:42:24;33.30;;;20.52;;
9815;SDS011;4947;44.526;11.360;2022-11-14T13:51:25;30.48;;;20.33;;
9815;SDS011;4947;44.526;11.360;2022-11-14T13:53:55;32.95;;;19.83;;
9815;SDS011;4947;44.526;11.360;2022-11-14T13:56:24;35.40;;;20.00;;
9815;SDS011;4947;44.526;11.360;2022-11-14T14:02:10;32.58;;;19.98;;
9815;SDS011;4947;44.526;11.360;2022-11-14T14:04:57;28.23;;;19.20;;
9815;SDS011;4947;44.526;11.360;2022-11-14T14:07:48;32.17;;;21.38;;
9815;SDS011;4947;44.526;11.360;2022-11-14T14:10:25;31.65;;;20.45;;
9815;SDS011;4947;44.526;11.360;2022-11-14T14:13:01;32.58;;;21.17;;
9815;SDS011;4947;44.526;11.360;2022-11-14T14:15:42;29.38;;;20.15;;
9815;SDS011;4947;44.526;11.360;2022-11-14T14:18:18;30.38;;;19.70;;
9815;SDS011;4947;44.526;11.360;2022-11-14T14:20:55;28.95;;;18.83;;
9815;SDS011;4947;44.526;11.360;2022-11-14T14:23:30;30.73;;;19.15;;
9815;SDS011;4947;44.526;11.360;2022-11-14T14:26:06;26.13;;;18.88;;
9815;SDS011;4947;44.526;11.360;2022-11-14T14:28:44;26.48;;;18.98;;
9815;SDS011;4947;44.526;11.360;2022-11-14T14:31:17;28.23;;;19.00;;
9815;SDS011;4947;44.526;11.360;2022-11-14T14:33:47;31.50;;;19.73;;
9815;SDS011;4947;44.526;11.360;2022-11-14T14:36:19;30.13;;;19.80;;
9815;SDS011;4947;44.526;11.360;2022-11-14T14:38:49;29.25;;;19.02;;
9815;SDS011;4947;44.526;11.360;2022-11-14T14:41:31;30.88;;;20.23;;
9815;SDS011;4947;44.526;11.360;2022-11-14T14:44:00;29.60;;;21.02;;
9815;SDS011;4947;44.526;11.360;2022-11-14T14:46:28;31.75;;;19.73;;
9815;SDS011;4947;44.526;11.360;2022-11-14T14:48:59;34.15;;;20.58;;
9815;SDS011;4947;44.526;11.360;2022-11-14T14:51:31;31.88;;;20.90;;
9815;SDS011;4947;44.526;11.360;2022-11-14T14:54:05;31.15;;;20.30;;
9815;SDS011;4947;44.526;11.360;2022-11-14T14:56:51;28.67;;;19.35;;
9815;SDS011;4947;44.526;11.360;2022-11-14T14:59:21;31.90;;;19.50;;
9815;SDS011;4947;44.526;11.360;2022-11-14T15:01:50;36.88;;;22.30;;
9815;SDS011;4947;44.526;11.360;2022-11-14T15:04:20;33.55;;;21.05;;
9815;SDS011;4947;44.526;11.360;2022-11-14T15:06:51;37.90;;;22.77;;
9815;SDS011;4947;44.526;11.360;2022-11-14T15:09:20;30.40;;;20.58;;
9815;SDS011;4947;44.526;11.360;2022-11-14T15:11:50;30.83;;;19.92;;
9815;SDS011;4947;44.526;11.360;2022-11-14T15:14:20;29.85;;;20.17;;
9815;SDS011;4947;44.526;11.360;2022-11-14T15:16:50;32.42;;;20.17;;
9815;SDS011;4947;44.526;11.360;2022-11-14T15:19:19;32.08;;;20.00;;
9815;SDS011;4947;44.526;11.360;2022-11-14T15:21:59;30.35;;;19.90;;
9815;SDS011;4947;44.526;11.360;2022-11-14T15:24:30;32.33;;;19.52;;
9815;SDS011;4947;44.526;11.360;2022-11-14T15:27:01;27.90;;;18.95;;
9815;SDS011;4947;44.526;11.360;2022-11-14T15:29:30;27.30;;;19.38;;
9815;SDS011;4947;44.526;11.360;2022-11-14T15:31:59;26.77;;;19.33;;
9815;SDS011;4947;44.526;11.360;2022-11-14T15:34:29;30.63;;;20.58;;
9815;SDS011;4947;44.526;11.360;2022-11-14T15:37:05;34.30;;;20.92;;